createdAt,value
2023-01-20T00:00:47.671Z,5.86
2023-01-20T00:03:31.574Z,5.92
2023-01-20T00:05:59.442Z,5.93
2023-01-20T00:08:29.441Z,5.93
2023-01-20T00:10:56.572Z,5.95
2023-01-20T00:13:26.601Z,5.91
2023-01-20T00:15:55.024Z,5.89
2023-01-20T00:18:21.895Z,5.95
2023-01-20T00:20:49.075Z,6.06
2023-01-20T00:23:16.157Z,6.06
2023-01-20T00:25:45.980Z,6.05
2023-01-20T00:28:12.869Z,6.07
2023-01-20T00:30:42.724Z,6.13
2023-01-20T00:33:09.639Z,6.13
2023-01-20T00:35:37.830Z,6.19
2023-01-20T00:38:06.654Z,6.23
2023-01-20T00:40:33.939Z,6.21
2023-01-20T00:43:03.539Z,6.15
2023-01-20T00:45:32.192Z,6.11
2023-01-20T00:48:00.382Z,6.09
2023-01-20T00:50:27.555Z,6.10
2023-01-20T00:52:55.711Z,6.11
2023-01-20T00:55:29.743Z,6.06
2023-01-20T00:57:59.991Z,6.00
2023-01-20T01:03:30.534Z,5.96
2023-01-20T01:06:07.545Z,5.93
2023-01-20T01:08:35.650Z,5.91
2023-01-20T01:11:04.095Z,5.95
2023-01-20T01:13:31.662Z,5.91
2023-01-20T01:15:59.083Z,5.89
2023-01-20T01:18:30.413Z,5.84
2023-01-20T01:20:57.625Z,5.89
2023-01-20T01:23:24.648Z,5.77
2023-01-20T01:25:51.981Z,5.71
2023-01-20T01:28:21.629Z,5.60
2023-01-20T01:30:48.929Z,5.61
2023-01-20T01:33:15.917Z,5.63
2023-01-20T01:35:44.415Z,5.62
2023-01-20T01:38:11.380Z,5.66
2023-01-20T01:40:40.049Z,5.55
2023-01-20T01:43:20.804Z,5.45
2023-01-20T01:45:48.092Z,5.41
2023-01-20T01:48:20.538Z,5.34
2023-01-20T01:50:56.473Z,5.38
2023-01-20T01:53:27.557Z,5.35
2023-01-20T01:55:59.244Z,5.37
2023-01-20T01:58:32.492Z,5.30
2023-01-20T02:01:00.295Z,5.12
2023-01-20T02:03:40.605Z,4.94
2023-01-20T02:06:15.634Z,4.85
2023-01-20T02:08:43.164Z,4.73
2023-01-20T02:11:10.439Z,4.79
2023-01-20T02:13:37.467Z,4.83
2023-01-20T02:16:13.874Z,4.70
2023-01-20T02:18:55.873Z,4.66
2023-01-20T02:22:04.452Z,4.65
2023-01-20T02:25:17.026Z,4.65
2023-01-20T02:28:12.198Z,4.61
2023-01-20T02:30:58.477Z,4.68
2023-01-20T02:33:30.416Z,4.66
2023-01-20T02:36:03.424Z,4.71
2023-01-20T02:38:38.498Z,4.66
2023-01-20T02:41:09.872Z,4.65
2023-01-20T02:43:46.639Z,4.67
2023-01-20T02:46:20.997Z,4.70
2023-01-20T02:48:54.864Z,4.77
2023-01-20T02:51:27.202Z,4.76
2023-01-20T02:53:57.511Z,4.73
2023-01-20T02:56:28.870Z,4.67
2023-01-20T02:59:00.461Z,4.59
2023-01-20T03:01:33.370Z,4.69
2023-01-20T03:04:05.190Z,4.74
2023-01-20T03:06:36.737Z,4.83
2023-01-20T03:09:07.389Z,4.91
2023-01-20T03:11:38.928Z,4.90
2023-01-20T03:14:10.131Z,4.88
2023-01-20T03:16:38.235Z,4.81
2023-01-20T03:19:06.993Z,4.75
2023-01-20T03:21:36.110Z,4.70
2023-01-20T03:24:06.901Z,4.68
2023-01-20T03:26:34.121Z,4.64
2023-01-20T03:29:05.101Z,4.57
2023-01-20T03:31:36.004Z,4.56
2023-01-20T03:34:11.147Z,4.56
2023-01-20T03:36:39.261Z,4.38
2023-01-20T03:39:06.716Z,4.41
2023-01-20T03:41:43.106Z,4.41
2023-01-20T03:44:16.673Z,4.38
2023-01-20T03:46:48.042Z,4.33
2023-01-20T03:49:24.336Z,4.30
2023-01-20T03:52:02.152Z,4.29
2023-01-20T03:54:36.363Z,4.30
2023-01-20T03:57:11.988Z,4.22
2023-01-20T03:59:42.391Z,4.10
2023-01-20T04:02:11.798Z,3.99
2023-01-20T04:04:43.551Z,4.00
2023-01-20T04:07:12.536Z,4.02
2023-01-20T04:09:45.120Z,4.02
2023-01-20T04:12:12.293Z,4.05
2023-01-20T04:14:39.605Z,3.97
2023-01-20T04:17:07.964Z,4.00
2023-01-20T04:19:35.215Z,4.01
2023-01-20T04:22:09.376Z,3.84
2023-01-20T04:24:46.223Z,3.86
2023-01-20T04:27:15.293Z,3.82
2023-01-20T04:29:42.967Z,3.83
2023-01-20T04:32:11.375Z,3.85
2023-01-20T04:34:38.595Z,3.87
2023-01-20T04:37:06.940Z,3.82
2023-01-20T04:39:34.077Z,3.83
2023-01-20T04:42:01.037Z,3.84
2023-01-20T04:44:28.624Z,3.86
2023-01-20T04:46:57.297Z,3.85
2023-01-20T04:49:26.359Z,3.77
2023-01-20T04:51:53.381Z,3.79
2023-01-20T04:54:22.029Z,3.79
2023-01-20T04:56:52.357Z,3.82
2023-01-20T04:59:25.932Z,3.81
2023-01-20T05:01:52.960Z,3.78
2023-01-20T05:04:20.422Z,3.77
2023-01-20T05:06:49.465Z,3.78
2023-01-20T05:09:22.060Z,3.74
2023-01-20T05:11:53.173Z,3.79
2023-01-20T05:14:20.532Z,3.83
2023-01-20T05:16:50.150Z,3.80
2023-01-20T05:19:19.970Z,3.86
2023-01-20T05:21:46.956Z,3.85
2023-01-20T05:24:14.386Z,3.87
2023-01-20T05:26:41.322Z,3.89
2023-01-20T05:29:10.231Z,3.88
2023-01-20T05:31:38.686Z,3.87
2023-01-20T05:34:06.079Z,3.90
2023-01-20T05:36:33.099Z,4.00
2023-01-20T05:39:00.416Z,4.04
2023-01-20T05:41:27.410Z,4.11
2023-01-20T05:43:54.585Z,4.07
2023-01-20T05:46:23.258Z,3.94
2023-01-20T05:48:50.442Z,4.07
2023-01-20T05:51:17.420Z,4.06
2023-01-20T05:53:46.057Z,4.08
2023-01-20T05:56:15.870Z,4.14
2023-01-20T05:58:45.816Z,4.17
2023-01-20T06:01:14.439Z,4.36
2023-01-20T06:03:47.186Z,4.36
2023-01-20T06:06:18.347Z,4.36
2023-01-20T06:08:45.639Z,4.26
2023-01-20T06:11:14.436Z,4.17
2023-01-20T06:13:41.632Z,4.20
2023-01-20T06:16:08.827Z,4.33
2023-01-20T06:18:36.007Z,4.31
2023-01-20T06:21:04.596Z,4.27
2023-01-20T06:23:32.456Z,4.36
2023-01-20T06:26:04.089Z,4.29
2023-01-20T06:28:33.478Z,4.25
2023-01-20T06:31:04.750Z,4.25
2023-01-20T06:33:32.543Z,4.38
2023-01-20T06:35:59.876Z,4.55
2023-01-20T06:38:33.519Z,4.58
2023-01-20T06:41:02.053Z,4.83
2023-01-20T06:43:29.998Z,5.09
2023-01-20T06:46:00.625Z,5.29
2023-01-20T06:48:28.321Z,5.57
2023-01-20T06:51:00.571Z,5.72
2023-01-20T06:53:29.436Z,5.68
2023-01-20T06:55:57.321Z,5.55
2023-01-20T06:58:25.152Z,5.27
2023-01-20T07:00:52.355Z,4.76
2023-01-20T07:03:19.655Z,4.18
2023-01-20T07:05:55.147Z,3.86
2023-01-20T07:08:22.417Z,3.96
2023-01-20T07:10:50.752Z,4.26
2023-01-20T07:13:20.048Z,4.46
2023-01-20T07:15:46.980Z,4.61
2023-01-20T07:18:16.967Z,4.66
2023-01-20T07:20:43.936Z,4.42
2023-01-20T07:23:12.495Z,4.06
2023-01-20T07:25:39.634Z,3.95
2023-01-20T07:28:09.105Z,4.09
2023-01-20T07:30:36.013Z,4.15
2023-01-20T07:33:05.588Z,3.82
2023-01-20T07:35:32.960Z,3.43
2023-01-20T07:38:00.351Z,3.36
2023-01-20T07:40:27.227Z,3.40
2023-01-20T07:42:58.956Z,3.44
2023-01-20T07:45:27.381Z,3.54
2023-01-20T07:47:55.760Z,3.72
2023-01-20T07:50:22.967Z,3.75
2023-01-20T07:52:51.018Z,3.63
2023-01-20T07:55:17.954Z,3.53
2023-01-20T07:57:45.191Z,3.70
2023-01-20T08:00:12.696Z,3.98
2023-01-20T08:02:41.246Z,3.87
2023-01-20T08:05:09.611Z,4.02
2023-01-20T08:07:36.957Z,4.31
2023-01-20T08:10:04.554Z,4.52
2023-01-20T08:12:31.907Z,4.69
2023-01-20T08:15:01.491Z,4.81
2023-01-20T08:17:31.297Z,4.95
2023-01-20T08:19:59.663Z,5.04
2023-01-20T08:22:26.898Z,5.03
2023-01-20T08:24:53.777Z,5.06
2023-01-20T08:27:21.078Z,5.15
2023-01-20T08:29:48.190Z,5.14
2023-01-20T08:32:17.499Z,5.13
2023-01-20T08:34:44.382Z,5.06
2023-01-20T08:37:13.199Z,5.30
2023-01-20T08:39:40.127Z,5.34
2023-01-20T08:42:07.390Z,5.36
2023-01-20T08:44:34.291Z,5.39
2023-01-20T08:47:03.409Z,5.43
2023-01-20T08:49:30.352Z,5.44
2023-01-20T08:52:00.158Z,5.44
2023-01-20T08:54:34.365Z,5.46
2023-01-20T08:57:01.636Z,5.48
2023-01-20T08:59:31.619Z,5.41
2023-01-20T09:01:58.838Z,5.41
2023-01-20T09:04:25.725Z,5.40
2023-01-20T09:06:53.930Z,5.36
2023-01-20T09:09:23.691Z,5.35
2023-01-20T09:11:52.424Z,5.38
2023-01-20T09:14:19.835Z,5.44
2023-01-20T09:16:47.084Z,5.49
2023-01-20T09:19:14.116Z,5.47
2023-01-20T09:21:42.310Z,5.41
2023-01-20T09:24:09.556Z,5.37
2023-01-20T09:26:39.518Z,5.39
2023-01-20T09:29:10.728Z,5.31
2023-01-20T09:31:51.571Z,5.28
2023-01-20T09:34:24.273Z,5.23
2023-01-20T09:36:52.807Z,5.11
2023-01-20T09:39:40.710Z,5.16
2023-01-20T09:42:47.059Z,5.14
2023-01-20T09:45:26.366Z,5.14
2023-01-20T09:48:04.433Z,5.09
2023-01-20T09:50:57.372Z,5.19
2023-01-20T09:53:48.796Z,5.24
2023-01-20T09:56:18.436Z,5.23
2023-01-20T09:58:53.009Z,5.23
2023-01-20T10:01:30.931Z,5.21
2023-01-20T10:04:05.144Z,5.20
2023-01-20T10:06:37.218Z,5.19
2023-01-20T10:09:10.965Z,5.15
2023-01-20T10:11:41.553Z,5.08
2023-01-20T10:14:23.039Z,5.03
2023-01-20T10:16:55.732Z,5.01
2023-01-20T10:19:29.874Z,5.10
2023-01-20T10:22:07.311Z,5.31
2023-01-20T10:24:39.121Z,5.24
2023-01-20T10:27:06.049Z,5.10
2023-01-20T10:29:37.178Z,5.06
2023-01-20T10:32:16.189Z,4.91
2023-01-20T10:34:50.957Z,4.84
2023-01-20T10:37:18.155Z,4.85
2023-01-20T10:39:54.731Z,4.81
2023-01-20T10:42:25.412Z,4.65
2023-01-20T10:44:52.764Z,4.56
2023-01-20T10:47:35.485Z,4.60
2023-01-20T10:50:18.510Z,4.63
2023-01-20T10:53:01.577Z,4.64
2023-01-20T10:55:43.417Z,4.67
2023-01-20T10:58:19.987Z,4.60
2023-01-20T11:00:47.241Z,4.60
2023-01-20T11:03:18.571Z,4.80
2023-01-20T11:05:47.845Z,5.39
2023-01-20T11:08:17.364Z,5.65
2023-01-20T11:10:47.001Z,5.83
2023-01-20T11:13:14.289Z,5.72
2023-01-20T11:15:45.396Z,5.50
2023-01-20T11:18:28.113Z,5.33
2023-01-20T11:20:58.578Z,5.24
2023-01-20T11:23:34.629Z,5.48
2023-01-20T11:26:10.695Z,5.72
2023-01-20T11:28:47.230Z,5.68
2023-01-20T11:31:15.446Z,5.52
2023-01-20T11:33:55.552Z,5.34
2023-01-20T11:36:27.741Z,5.44
2023-01-20T11:38:56.820Z,5.68
2023-01-20T11:41:27.283Z,5.72
2023-01-20T11:43:55.806Z,5.55
2023-01-20T11:46:31.247Z,5.36
2023-01-20T11:49:22.792Z,5.24
2023-01-20T11:51:52.582Z,5.45
2023-01-20T11:54:21.543Z,5.70
2023-01-20T11:56:51.130Z,5.59
2023-01-20T11:59:27.883Z,5.40
2023-01-20T12:02:00.306Z,5.20
2023-01-20T12:04:49.036Z,5.09
2023-01-20T12:07:21.048Z,5.37
2023-01-20T12:09:52.792Z,5.53
2023-01-20T12:12:28.509Z,5.36
2023-01-20T12:15:00.872Z,5.22
2023-01-20T12:17:42.386Z,5.06
2023-01-20T12:20:25.023Z,5.12
2023-01-20T12:23:07.588Z,5.13
2023-01-20T12:25:43.368Z,4.91
2023-01-20T12:28:16.452Z,4.72
2023-01-20T12:30:59.041Z,4.59
2023-01-20T12:33:30.438Z,4.54
2023-01-20T12:36:35.954Z,4.45
2023-01-20T12:39:17.664Z,4.29
2023-01-20T12:42:07.289Z,4.20
2023-01-20T12:44:43.007Z,4.10
2023-01-20T12:47:21.217Z,4.00
2023-01-20T12:50:05.421Z,3.94
2023-01-20T12:52:46.477Z,3.89
2023-01-20T12:55:21.987Z,3.81
2023-01-20T12:58:00.490Z,3.75
2023-01-20T13:00:38.812Z,3.73
2023-01-20T13:03:41.340Z,3.66
2023-01-20T13:06:33.163Z,3.65
2023-01-20T13:09:14.209Z,3.61
2023-01-20T13:11:55.182Z,3.57
2023-01-20T13:14:31.232Z,3.39
2023-01-20T13:17:05.260Z,3.45
2023-01-20T13:19:39.986Z,3.45
2023-01-20T13:22:11.316Z,3.31
2023-01-20T13:24:48.394Z,3.31
2023-01-20T13:27:21.905Z,3.32
2023-01-20T13:29:57.088Z,3.26
2023-01-20T13:32:32.680Z,3.24
2023-01-20T13:35:01.162Z,3.19
2023-01-20T13:37:36.553Z,3.14
2023-01-20T13:40:37.311Z,3.05
2023-01-20T13:43:05.242Z,2.97
2023-01-20T13:45:32.153Z,3.02
2023-01-20T13:48:02.954Z,3.32
2023-01-20T13:50:32.380Z,3.87
2023-01-20T13:53:28.158Z,4.18
2023-01-20T13:56:02.032Z,4.11
2023-01-20T13:58:31.803Z,3.81
2023-01-20T14:01:01.212Z,3.49
2023-01-20T14:03:30.074Z,3.25
2023-01-20T14:06:04.968Z,3.34
2023-01-20T14:08:40.766Z,3.65
2023-01-20T14:11:14.016Z,3.55
2023-01-20T14:13:50.811Z,3.34
2023-01-20T14:16:19.726Z,3.11
2023-01-20T14:18:48.112Z,3.03
2023-01-20T14:21:25.821Z,3.29
2023-01-20T14:23:53.525Z,3.57
2023-01-20T14:26:24.056Z,3.53
2023-01-20T14:28:52.978Z,3.40
2023-01-20T14:31:36.347Z,3.23
2023-01-20T14:34:21.850Z,3.07
2023-01-20T14:36:49.420Z,2.96
2023-01-20T14:39:20.556Z,2.94
2023-01-20T14:41:51.352Z,2.93
2023-01-20T14:44:21.137Z,2.91
2023-01-20T14:46:50.076Z,2.92
2023-01-20T14:49:23.386Z,2.89
2023-01-20T14:51:51.601Z,2.92
2023-01-20T14:54:44.184Z,2.92
2023-01-20T14:57:26.891Z,2.91
2023-01-20T15:00:13.487Z,2.88
2023-01-20T15:02:44.112Z,2.80
2023-01-20T15:05:22.709Z,2.73
2023-01-20T15:07:49.875Z,2.79
2023-01-20T15:10:18.416Z,2.82
2023-01-20T15:12:54.454Z,2.81
2023-01-20T15:15:30.399Z,2.80
2023-01-20T15:18:17.648Z,2.77
2023-01-20T15:20:48.355Z,2.79
2023-01-20T15:23:32.281Z,2.77
2023-01-20T15:26:08.047Z,2.80
2023-01-20T15:28:41.067Z,2.80
2023-01-20T15:31:13.226Z,2.77
2023-01-20T15:33:41.097Z,2.78
2023-01-20T15:36:20.936Z,2.78
2023-01-20T15:38:48.150Z,2.79
2023-01-20T15:41:15.360Z,2.77
2023-01-20T15:43:45.535Z,2.80
2023-01-20T15:46:23.034Z,2.79
2023-01-20T15:48:53.012Z,2.79
2023-01-20T15:51:20.705Z,2.73
2023-01-20T15:53:48.271Z,2.73
2023-01-20T15:56:19.862Z,2.73
2023-01-20T15:58:51.557Z,2.77
2023-01-20T16:01:20.401Z,2.80
2023-01-20T16:03:47.427Z,2.78
2023-01-20T16:06:16.482Z,2.83
2023-01-20T16:08:47.983Z,2.83
2023-01-20T16:11:16.695Z,2.85
2023-01-20T16:13:43.833Z,2.83
2023-01-20T16:16:14.610Z,2.78
2023-01-20T16:18:41.894Z,2.76
2023-01-20T16:21:10.660Z,2.79
2023-01-20T16:23:37.857Z,2.72
2023-01-20T16:26:16.492Z,2.37
2023-01-20T16:28:43.405Z,1.99
2023-01-20T16:31:20.746Z,1.64
2023-01-20T16:33:48.008Z,1.41
2023-01-20T16:36:20.989Z,1.28
2023-01-20T16:38:48.960Z,1.14
2023-01-20T16:41:24.966Z,1.05
2023-01-20T16:43:59.398Z,1.03
2023-01-20T16:46:34.247Z,1.08
2023-01-20T16:49:02.159Z,1.12
2023-01-20T16:51:31.027Z,1.30
2023-01-20T16:53:59.320Z,1.70
2023-01-20T16:56:28.622Z,2.04
2023-01-20T16:58:57.996Z,2.30
2023-01-20T17:01:27.795Z,2.47
2023-01-20T17:03:56.696Z,2.61
2023-01-20T17:06:24.872Z,2.73
2023-01-20T17:08:53.683Z,2.79
2023-01-20T17:11:22.661Z,2.90
2023-01-20T17:13:50.119Z,2.97
2023-01-20T17:16:17.926Z,3.00
2023-01-20T17:18:48.819Z,3.00
2023-01-20T17:21:16.998Z,3.00
2023-01-20T17:23:44.022Z,3.01
2023-01-20T17:26:11.185Z,3.00
2023-01-20T17:28:38.150Z,3.03
2023-01-20T17:31:06.956Z,3.05
2023-01-20T17:33:34.349Z,3.04
2023-01-20T17:36:04.590Z,3.05
2023-01-20T17:38:33.623Z,2.98
2023-01-20T17:41:01.720Z,3.04
2023-01-20T17:43:32.585Z,3.02
2023-01-20T17:46:00.019Z,3.11
2023-01-20T17:48:27.028Z,3.17
2023-01-20T17:50:59.357Z,3.18
2023-01-20T17:53:28.074Z,3.13
2023-01-20T17:56:06.651Z,3.14
2023-01-20T17:58:39.504Z,3.19
2023-01-20T18:01:11.252Z,3.19
2023-01-20T18:03:43.097Z,3.20
2023-01-20T18:06:11.668Z,3.18
2023-01-20T18:08:40.682Z,3.20
2023-01-20T18:11:10.078Z,3.21
2023-01-20T18:13:37.208Z,3.25
2023-01-20T18:16:05.451Z,3.32
2023-01-20T18:18:32.963Z,3.33
2023-01-20T18:21:11.172Z,3.34
2023-01-20T18:23:40.787Z,3.33
2023-01-20T18:26:09.893Z,3.32
2023-01-20T18:28:37.646Z,3.30
2023-01-20T18:31:09.425Z,3.33
2023-01-20T18:33:39.759Z,3.37
2023-01-20T18:36:09.144Z,3.30
2023-01-20T18:38:35.977Z,3.35
2023-01-20T18:41:04.853Z,3.35
2023-01-20T18:43:32.096Z,3.38
2023-01-20T18:45:59.435Z,3.35
2023-01-20T18:48:26.763Z,3.35
2023-01-20T18:50:59.657Z,3.28
2023-01-20T18:53:26.962Z,3.36
2023-01-20T18:55:59.773Z,3.38
2023-01-20T18:58:28.632Z,3.34
2023-01-20T19:01:01.654Z,3.35
2023-01-20T19:03:32.199Z,3.31
2023-01-20T19:06:08.499Z,3.21
2023-01-20T19:08:40.124Z,3.20
2023-01-20T19:11:20.808Z,3.20
2023-01-20T19:13:53.671Z,3.17
2023-01-20T19:16:47.277Z,3.14
2023-01-20T19:19:18.180Z,3.20
2023-01-20T19:21:50.885Z,3.20
2023-01-20T19:24:22.526Z,3.19
2023-01-20T19:26:50.745Z,3.21
2023-01-20T19:29:20.945Z,3.20
2023-01-20T19:31:49.328Z,3.21
2023-01-20T19:34:16.785Z,3.21
2023-01-20T19:36:44.418Z,3.19
2023-01-20T19:39:11.943Z,3.16
2023-01-20T19:41:39.696Z,3.18
2023-01-20T19:44:07.724Z,3.21
2023-01-20T19:46:38.918Z,3.18
2023-01-20T19:49:06.943Z,3.17
2023-01-20T19:51:36.362Z,3.21
2023-01-20T19:54:06.598Z,3.25
2023-01-20T19:56:34.936Z,3.22
2023-01-20T19:59:02.418Z,3.25
2023-01-20T20:01:32.111Z,3.29
2023-01-20T20:04:05.395Z,3.34
2023-01-20T20:06:38.018Z,3.34
2023-01-20T20:09:07.053Z,3.30
2023-01-20T20:11:34.813Z,3.24
2023-01-20T20:14:03.935Z,3.22
2023-01-20T20:16:33.486Z,3.19
2023-01-20T20:19:06.735Z,3.19
2023-01-20T20:21:34.600Z,3.23
2023-01-20T20:24:03.046Z,3.23
2023-01-20T20:26:33.439Z,3.23
2023-01-20T20:29:01.559Z,3.24
2023-01-20T20:31:29.549Z,3.26
2023-01-20T20:33:57.517Z,3.28
2023-01-20T20:36:46.824Z,3.23
2023-01-20T20:39:14.751Z,3.18
2023-01-20T20:41:42.472Z,3.15
2023-01-20T20:44:10.218Z,3.08
2023-01-20T20:46:37.664Z,3.10
2023-01-20T20:49:04.809Z,3.08
2023-01-20T20:51:34.574Z,3.11
2023-01-20T20:54:02.815Z,3.07
2023-01-20T20:56:33.892Z,3.00
2023-01-20T20:59:03.618Z,2.99
2023-01-20T21:01:33.575Z,2.99
2023-01-20T21:04:00.976Z,2.97
2023-01-20T21:06:29.428Z,2.98
2023-01-20T21:08:58.776Z,3.01
2023-01-20T21:11:26.302Z,3.04
2023-01-20T21:13:53.566Z,2.92
2023-01-20T21:16:24.940Z,2.94
2023-01-20T21:18:53.988Z,3.15
2023-01-20T21:21:21.505Z,3.24
2023-01-20T21:23:49.880Z,3.23
2023-01-20T21:26:19.281Z,3.23
2023-01-20T21:28:49.176Z,3.18
2023-01-20T21:31:19.052Z,3.13
2023-01-20T21:33:48.642Z,3.15
2023-01-20T21:36:20.192Z,3.17
2023-01-20T21:38:48.947Z,3.19
2023-01-20T21:41:16.461Z,3.20
2023-01-20T21:44:05.805Z,3.21
2023-01-20T21:46:37.257Z,3.21
2023-01-20T21:49:23.693Z,3.22
2023-01-20T21:52:09.393Z,3.24
2023-01-20T21:54:36.328Z,3.23
2023-01-20T21:57:03.722Z,3.23
2023-01-20T21:59:32.027Z,3.25
2023-01-20T22:02:04.658Z,3.26
2023-01-20T22:04:34.891Z,3.21
2023-01-20T22:07:02.069Z,3.19
2023-01-20T22:09:29.080Z,3.20
2023-01-20T22:12:01.650Z,3.21
2023-01-20T22:14:28.718Z,3.15
2023-01-20T22:16:57.571Z,3.15
2023-01-20T22:19:25.019Z,3.16
2023-01-20T22:21:52.342Z,3.21
2023-01-20T22:24:19.647Z,3.23
2023-01-20T22:26:52.395Z,3.26
2023-01-20T22:29:19.578Z,3.23
2023-01-20T22:31:47.241Z,3.25
2023-01-20T22:34:15.641Z,3.18
2023-01-20T22:36:42.922Z,3.15
2023-01-20T22:39:11.864Z,3.11
2023-01-20T22:41:38.873Z,3.09
2023-01-20T22:44:06.185Z,2.97
2023-01-20T22:46:35.462Z,3.00
